Gallup Mills, Vermont
Current Conditions -  °F | °C
As of 9:35 PM on Saturday 22 Nov 2014 (Local Time) from KCDA Reporting Station
Overcast Overcast  
Wind Chill:   Ceiling: 2400
Heat Index:   Visibility: 10mi
Dew Point: -7°   Wind: 3mph
Humidity: 55%   Direction: 160°SSE
Pressure: 29.93"   Gusts: NA
Location:  44.5627°N, 71.7775°W
Report Text: KCDA 230235Z AUTO 16003KT 10SM OVC024 01/M07 A2993 RMK AO2 T00071074
Loading
Personal Weather Stations






























Interactive Weather Map New forecast layout! Learn more

10-Day Weather Forecast

Advertisements
Track Severe Weather on mobile